Terminal Aerodrome Forecast
Issued by NWS

Home | Current Version | Previous Version | Text Only | Print | Product List | Glossary On
Versions: 1 2 3 4 5 6 7 8 9 10 11 12 13
000
FTUS45 KGJT 291902 AAA
TAFRIL
TAF AMD
KRIL 291902Z 2919/3018 25015KT P6SM VCSH SCT080 OVC100
     FM292000 27009KT P6SM VCTS FEW070CB BKN090
     FM300100 20008KT P6SM VCTS SCT050CB BKN070
     FM300600 18004KT P6SM VCSH SCT040 OVC060
     FM301200 15004KT P6SM VCSH OVC030=

USA.gov is the U.S. government's official web portal to all federal, state and local government web resources and services.